createdAt,value
2019-02-07T00:01:13.823Z,58.05
2019-02-07T00:03:40.717Z,59.45
2019-02-07T00:06:07.137Z,56.23
2019-02-07T00:08:33.690Z,56.37
2019-02-07T00:11:00.111Z,58.48
2019-02-07T00:13:26.536Z,54.05
2019-02-07T00:15:53.114Z,48.80
2019-02-07T00:18:19.728Z,52.30
2019-02-07T00:20:46.103Z,56.68
2019-02-07T00:23:13.123Z,62.05
2019-02-07T00:25:39.673Z,60.17
2019-02-07T00:28:06.191Z,52.67
2019-02-07T00:30:32.710Z,51.00
2019-02-07T00:32:59.083Z,52.62
2019-02-07T00:35:25.499Z,49.25
2019-02-07T00:37:52.009Z,49.40
2019-02-07T00:40:19.549Z,51.92
2019-02-07T00:42:47.489Z,54.48
2019-02-07T00:45:15.249Z,58.87
2019-02-07T00:47:42.147Z,53.63
2019-02-07T00:50:16.973Z,50.43
2019-02-07T00:52:43.465Z,49.55
2019-02-07T00:55:13.018Z,52.62
2019-02-07T00:57:39.693Z,53.85
2019-02-07T01:00:21.085Z,45.92
2019-02-07T01:02:47.590Z,48.00
2019-02-07T01:05:14.730Z,45.03
2019-02-07T01:07:41.336Z,46.45
2019-02-07T01:10:11.119Z,50.85
2019-02-07T01:12:37.531Z,53.30
2019-02-07T01:15:06.993Z,60.45
2019-02-07T01:17:33.403Z,68.07
2019-02-07T01:19:59.859Z,50.33
2019-02-07T01:22:26.240Z,49.48
2019-02-07T01:24:52.736Z,56.50
2019-02-07T01:27:19.084Z,55.00
2019-02-07T01:29:46.021Z,46.68
2019-02-07T01:32:12.484Z,50.83
2019-02-07T01:34:38.964Z,45.40
2019-02-07T01:37:05.329Z,54.23
2019-02-07T01:39:31.721Z,54.85
2019-02-07T01:41:58.247Z,55.12
2019-02-07T01:44:24.765Z,51.90
2019-02-07T01:46:51.207Z,52.90
2019-02-07T01:49:17.998Z,55.43
2019-02-07T01:51:44.409Z,57.17
2019-02-07T01:54:10.973Z,50.95
2019-02-07T01:56:37.440Z,52.58
2019-02-07T01:59:03.823Z,53.25
2019-02-07T02:01:30.400Z,49.00
2019-02-07T02:03:56.769Z,61.65
2019-02-07T02:06:23.125Z,58.23
2019-02-07T02:08:49.531Z,54.75
2019-02-07T02:11:16.020Z,62.03
2019-02-07T02:13:42.393Z,98.10
2019-02-07T02:16:08.817Z,53.70
2019-02-07T02:18:35.284Z,49.83
2019-02-07T02:21:01.724Z,56.23
2019-02-07T02:23:28.105Z,57.75
2019-02-07T02:25:55.676Z,59.13
2019-02-07T02:28:22.561Z,61.40
2019-02-07T02:30:49.187Z,67.65
2019-02-07T02:33:15.604Z,70.65
2019-02-07T02:35:43.399Z,55.25
2019-02-07T02:38:09.759Z,57.17
2019-02-07T02:40:36.154Z,60.67
2019-02-07T02:43:02.734Z,57.15
2019-02-07T02:45:37.194Z,48.40
2019-02-07T02:47:57.490Z,55.75
2019-02-07T02:50:24.223Z,56.45
2019-02-07T02:52:50.756Z,63.33
2019-02-07T02:55:21.950Z,63.85
2019-02-07T02:57:48.250Z,58.63
2019-02-07T03:00:17.249Z,52.35
2019-02-07T03:03:00.506Z,59.83
2019-02-07T03:05:28.867Z,65.15
2019-02-07T03:08:06.183Z,57.55
2019-02-07T03:10:40.485Z,58.23
2019-02-07T03:13:17.907Z,64.17
2019-02-07T03:15:49.571Z,60.60
2019-02-07T03:18:19.232Z,62.13
2019-02-07T03:21:06.606Z,58.00
2019-02-07T03:23:50.373Z,54.80
2019-02-07T03:26:18.677Z,52.78
2019-02-07T03:28:49.787Z,53.78
2019-02-07T03:31:18.048Z,52.88
2019-02-07T03:34:01.302Z,65.47
2019-02-07T03:36:38.633Z,55.30
2019-02-07T03:39:20.622Z,55.83
2019-02-07T03:41:58.067Z,61.37
2019-02-07T03:44:42.892Z,51.92
2019-02-07T03:47:13.802Z,58.42
2019-02-07T03:49:42.013Z,55.98
2019-02-07T03:52:28.331Z,58.48
2019-02-07T03:55:08.841Z,57.45
2019-02-07T03:57:49.232Z,62.35
2019-02-07T04:00:27.276Z,57.43
2019-02-07T04:03:01.396Z,51.30
2019-02-07T04:05:29.827Z,57.43
2019-02-07T04:07:57.997Z,62.70
2019-02-07T04:10:43.297Z,61.08
2019-02-07T04:13:17.545Z,47.88
2019-02-07T04:15:48.497Z,49.77
2019-02-07T04:18:19.834Z,50.43
2019-02-07T04:20:51.000Z,53.25
2019-02-07T04:23:22.187Z,59.35
2019-02-07T04:25:50.387Z,58.30
2019-02-07T04:28:18.557Z,49.40
2019-02-07T04:30:46.840Z,60.95
2019-02-07T04:33:20.826Z,52.00
2019-02-07T04:36:06.188Z,52.98
2019-02-07T04:38:34.553Z,54.73
2019-02-07T04:41:02.837Z,52.45
2019-02-07T04:43:39.973Z,53.33
2019-02-07T04:46:26.416Z,56.68
2019-02-07T04:48:47.355Z,45.88
2019-02-07T04:51:27.508Z,44.42
2019-02-07T04:54:01.986Z,53.35
2019-02-07T04:56:33.275Z,43.87
2019-02-07T04:59:16.734Z,49.27
2019-02-07T05:01:54.007Z,61.48
2019-02-07T05:04:34.622Z,54.98
2019-02-07T05:07:14.797Z,50.17
2019-02-07T05:09:45.954Z,47.78
2019-02-07T05:12:14.311Z,45.55
2019-02-07T05:14:45.494Z,64.42
2019-02-07T05:17:13.975Z,53.92
2019-02-07T05:19:54.276Z,45.48
2019-02-07T05:22:22.532Z,47.58
2019-02-07T05:24:56.524Z,50.83
2019-02-07T05:27:42.902Z,46.08
2019-02-07T05:30:19.396Z,52.08
2019-02-07T05:32:47.648Z,47.30
2019-02-07T05:35:32.513Z,42.25
2019-02-07T05:38:17.167Z,50.20
2019-02-07T05:40:45.447Z,51.53
2019-02-07T05:43:22.418Z,49.45
2019-02-07T05:45:53.341Z,45.12
2019-02-07T05:48:24.484Z,53.98
2019-02-07T05:50:52.797Z,55.17
2019-02-07T05:53:20.963Z,49.00
2019-02-07T05:56:07.508Z,52.13
2019-02-07T05:58:45.067Z,53.98
2019-02-07T06:01:30.074Z,59.65
2019-02-07T06:04:04.260Z,56.02
2019-02-07T06:06:47.523Z,50.52
2019-02-07T06:09:15.696Z,54.83
2019-02-07T06:12:02.229Z,52.15
2019-02-07T06:14:36.137Z,57.10
2019-02-07T06:17:21.117Z,49.83
2019-02-07T06:20:06.077Z,55.73
2019-02-07T06:22:46.142Z,66.92
2019-02-07T06:25:32.355Z,55.88
2019-02-07T06:28:06.332Z,57.95
2019-02-07T06:30:34.526Z,63.13
2019-02-07T06:33:19.532Z,53.35
2019-02-07T06:35:50.532Z,58.45
2019-02-07T06:38:18.702Z,60.30
2019-02-07T06:40:46.916Z,60.10
2019-02-07T06:43:18.045Z,60.35
2019-02-07T06:45:46.398Z,60.88
2019-02-07T06:48:23.547Z,60.70
2019-02-07T06:51:03.752Z,53.05
2019-02-07T06:53:32.052Z,61.77
2019-02-07T06:56:11.121Z,55.35
2019-02-07T06:58:48.470Z,56.48
2019-02-07T07:01:28.728Z,55.55
2019-02-07T07:04:00.224Z,56.92
2019-02-07T07:06:37.344Z,61.70
2019-02-07T07:09:08.959Z,62.58
2019-02-07T07:11:42.991Z,62.20
2019-02-07T07:14:11.309Z,55.43
2019-02-07T07:16:42.369Z,68.95
2019-02-07T07:19:10.745Z,70.10
2019-02-07T07:21:55.671Z,63.00
2019-02-07T07:24:29.746Z,69.75
2019-02-07T07:27:14.829Z,74.75
2019-02-07T07:29:45.713Z,67.35
2019-02-07T07:32:29.036Z,54.23
2019-02-07T07:35:03.434Z,69.75
2019-02-07T07:37:43.490Z,75.52
2019-02-07T07:40:16.159Z,59.40
2019-02-07T07:42:44.332Z,69.72
2019-02-07T07:45:15.947Z,69.55
2019-02-07T07:47:59.106Z,69.37
2019-02-07T07:50:39.621Z,70.08
2019-02-07T07:53:07.804Z,78.20
2019-02-07T07:55:41.758Z,73.72
2019-02-07T07:58:25.267Z,61.37
2019-02-07T08:00:53.656Z,66.33
2019-02-07T08:03:22.031Z,65.72
2019-02-07T08:05:56.663Z,67.50
2019-02-07T08:08:41.637Z,65.42
2019-02-07T08:11:18.631Z,71.40
2019-02-07T08:13:49.495Z,62.75
2019-02-07T08:16:23.613Z,62.78
2019-02-07T08:18:51.973Z,65.95
2019-02-07T08:21:25.957Z,60.80
2019-02-07T08:23:56.860Z,62.10
2019-02-07T08:26:41.787Z,51.63
2019-02-07T08:29:12.684Z,61.70
2019-02-07T08:31:41.076Z,60.00
2019-02-07T08:34:21.225Z,66.05
2019-02-07T08:36:49.937Z,55.52
2019-02-07T08:39:20.849Z,54.53
2019-02-07T08:42:04.369Z,58.55
2019-02-07T08:44:38.547Z,57.13
2019-02-07T08:47:19.109Z,55.05
2019-02-07T08:49:59.343Z,49.08
2019-02-07T08:52:36.738Z,60.03
2019-02-07T08:55:23.658Z,53.38
2019-02-07T08:57:54.598Z,58.13
2019-02-07T09:00:26.574Z,53.92
2019-02-07T09:03:10.065Z,55.33
2019-02-07T09:05:47.182Z,47.95
2019-02-07T09:08:15.334Z,50.95
2019-02-07T09:10:46.608Z,46.37
2019-02-07T09:13:31.247Z,48.42
2019-02-07T09:16:15.956Z,51.60
2019-02-07T09:18:50.133Z,55.70
2019-02-07T09:21:24.186Z,47.65
2019-02-07T09:24:09.216Z,58.15
2019-02-07T09:26:54.069Z,55.95
2019-02-07T09:29:28.348Z,51.92
2019-02-07T09:31:56.875Z,50.55
2019-02-07T09:34:43.247Z,49.88
2019-02-07T09:37:17.594Z,53.85
2019-02-07T09:40:02.390Z,48.70
2019-02-07T09:42:30.563Z,59.77
2019-02-07T09:45:14.054Z,55.60
2019-02-07T09:47:51.101Z,85.77
2019-02-07T09:50:25.489Z,52.15
2019-02-07T09:52:53.672Z,63.33
2019-02-07T09:55:21.963Z,58.63
2019-02-07T09:57:50.146Z,49.27
2019-02-07T10:00:27.208Z,46.98
2019-02-07T10:02:55.723Z,52.62
2019-02-07T10:05:23.993Z,54.90
2019-02-07T10:07:52.268Z,50.80
2019-02-07T10:10:26.640Z,54.13
2019-02-07T10:13:11.570Z,51.25
2019-02-07T10:15:57.835Z,53.02
2019-02-07T10:18:42.904Z,53.00
2019-02-07T10:21:16.875Z,54.25
2019-02-07T10:23:54.103Z,49.53
2019-02-07T10:26:31.450Z,48.10
2019-02-07T10:29:14.784Z,50.92
2019-02-07T10:31:46.036Z,48.42
2019-02-07T10:34:18.874Z,56.58
2019-02-07T10:36:47.023Z,52.65
2019-02-07T10:39:21.115Z,46.25
2019-02-07T10:41:52.205Z,56.98
2019-02-07T10:44:20.556Z,46.88
2019-02-07T10:47:04.066Z,48.73
2019-02-07T10:49:32.476Z,49.23
2019-02-07T10:52:04.240Z,50.95
2019-02-07T10:54:33.023Z,45.50
2019-02-07T10:57:18.033Z,52.23
2019-02-07T11:00:04.409Z,48.92
2019-02-07T11:02:47.738Z,51.05
2019-02-07T11:05:31.028Z,51.75
2019-02-07T11:08:02.253Z,51.80
2019-02-07T11:10:33.606Z,52.60
2019-02-07T11:13:17.093Z,48.23
2019-02-07T11:15:48.015Z,53.28
2019-02-07T11:18:32.979Z,65.80
2019-02-07T11:21:17.822Z,53.95
2019-02-07T11:23:46.105Z,49.00
2019-02-07T11:26:17.363Z,55.10
2019-02-07T11:28:45.666Z,57.50
2019-02-07T11:31:29.288Z,53.35
2019-02-07T11:34:03.482Z,55.88
2019-02-07T11:36:40.973Z,54.03
2019-02-07T11:39:18.820Z,59.27
2019-02-07T11:42:04.044Z,60.80
2019-02-07T11:44:34.958Z,51.08
2019-02-07T11:47:19.996Z,57.40
2019-02-07T11:52:40.358Z,56.37
2019-02-07T11:55:09.067Z,59.35
2019-02-07T11:57:46.546Z,52.67
2019-02-07T12:00:32.730Z,51.20
2019-02-07T12:03:01.175Z,54.58
2019-02-07T12:05:41.769Z,56.90
2019-02-07T12:08:26.748Z,59.13
2019-02-07T12:10:57.809Z,56.20
2019-02-07T12:13:35.262Z,53.33
2019-02-07T12:16:12.498Z,56.13
2019-02-07T12:18:46.942Z,60.75
2019-02-07T12:21:18.180Z,59.63
2019-02-07T12:23:46.482Z,59.08
2019-02-07T12:26:33.440Z,56.77
2019-02-07T12:29:01.818Z,58.10
2019-02-07T12:31:33.051Z,55.98
2019-02-07T12:34:01.248Z,55.40
2019-02-07T12:36:35.745Z,54.88
2019-02-07T12:39:07.280Z,52.70
2019-02-07T12:41:38.260Z,54.10
2019-02-07T12:44:06.742Z,62.38
2019-02-07T12:46:51.714Z,53.30
2019-02-07T12:49:29.231Z,53.52
2019-02-07T12:51:53.784Z,54.08
2019-02-07T12:54:39.006Z,50.12
2019-02-07T12:57:13.031Z,64.90
2019-02-07T12:59:47.389Z,58.10
2019-02-07T13:02:33.774Z,58.20
2019-02-07T13:05:08.478Z,52.98
2019-02-07T13:07:55.172Z,49.40
2019-02-07T13:10:41.491Z,56.55
2019-02-07T13:13:21.619Z,53.68
2019-02-07T13:15:52.899Z,51.70
2019-02-07T13:18:21.248Z,52.40
2019-02-07T13:20:52.400Z,53.17
2019-02-07T13:23:35.996Z,45.67
2019-02-07T13:26:14.252Z,51.02
2019-02-07T13:28:45.705Z,59.63
2019-02-07T13:31:13.999Z,58.87
2019-02-07T13:33:45.419Z,64.65
2019-02-07T13:36:20.083Z,58.05
2019-02-07T13:39:06.474Z,61.58
2019-02-07T13:41:40.490Z,55.48
2019-02-07T13:44:20.875Z,59.83
2019-02-07T13:46:55.302Z,61.88
2019-02-07T13:49:26.258Z,50.65
2019-02-07T13:52:03.606Z,57.55
2019-02-07T13:54:35.058Z,57.50
2019-02-07T13:57:03.484Z,67.82
2019-02-07T13:59:48.271Z,60.58
2019-02-07T14:02:28.580Z,66.80
2019-02-07T14:05:02.794Z,60.55
2019-02-07T14:07:39.989Z,58.45
2019-02-07T14:10:11.632Z,56.37
2019-02-07T14:12:48.782Z,54.70
2019-02-07T14:15:23.183Z,60.23
2019-02-07T14:18:09.474Z,59.03
2019-02-07T14:20:40.443Z,66.77
2019-02-07T14:23:14.857Z,67.00
2019-02-07T14:25:45.787Z,65.57
2019-02-07T14:28:14.066Z,57.55
2019-02-07T14:30:45.042Z,63.63
2019-02-07T14:33:25.481Z,58.17
2019-02-07T14:36:10.697Z,65.62
2019-02-07T14:38:47.716Z,59.00
2019-02-07T14:41:15.976Z,60.30
2019-02-07T14:43:50.446Z,59.93
2019-02-07T14:46:35.427Z,65.80
2019-02-07T14:49:01.718Z,58.00
2019-02-07T14:51:28.166Z,64.50
2019-02-07T14:53:54.850Z,62.20
2019-02-07T14:56:21.186Z,64.87
2019-02-07T14:58:48.200Z,74.45
2019-02-07T15:01:14.549Z,71.25
2019-02-07T15:03:41.034Z,68.20
2019-02-07T15:06:07.584Z,62.00
2019-02-07T15:08:34.081Z,64.92
2019-02-07T15:11:00.547Z,65.03
2019-02-07T15:13:27.018Z,59.90
2019-02-07T15:15:53.416Z,68.52
2019-02-07T15:18:20.175Z,68.70
2019-02-07T15:20:46.596Z,74.97
2019-02-07T15:23:12.978Z,69.82
2019-02-07T15:25:39.379Z,70.25
2019-02-07T15:28:05.842Z,70.20
2019-02-07T15:30:32.208Z,74.42
2019-02-07T15:32:58.502Z,75.20
2019-02-07T15:35:28.594Z,70.05
2019-02-07T15:37:55.487Z,71.17
2019-02-07T15:40:25.598Z,74.20
2019-02-07T15:42:53.200Z,69.82
2019-02-07T15:45:19.878Z,67.35
2019-02-07T15:47:46.362Z,66.75
2019-02-07T15:50:16.463Z,76.67
2019-02-07T15:52:43.146Z,71.85
2019-02-07T15:55:10.219Z,66.90
2019-02-07T15:57:36.529Z,66.33
2019-02-07T16:00:08.361Z,64.60
2019-02-07T16:02:34.625Z,69.23
2019-02-07T16:05:01.168Z,66.15
2019-02-07T16:07:27.654Z,69.27
2019-02-07T16:09:54.345Z,70.42
2019-02-07T16:12:21.250Z,65.60
2019-02-07T16:14:47.731Z,72.95
2019-02-07T16:17:15.181Z,74.45
2019-02-07T16:19:41.650Z,73.07
2019-02-07T16:22:08.133Z,71.42
2019-02-07T16:24:34.645Z,73.62
2019-02-07T16:27:01.050Z,69.40
2019-02-07T16:29:27.488Z,72.50
2019-02-07T16:31:54.358Z,77.37
2019-02-07T16:34:20.910Z,70.45
2019-02-07T16:36:47.377Z,72.40
2019-02-07T16:39:14.488Z,70.90
2019-02-07T16:41:40.888Z,71.15
2019-02-07T16:44:07.384Z,70.28
2019-02-07T16:46:33.945Z,60.52
2019-02-07T16:49:00.375Z,71.62
2019-02-07T16:51:27.111Z,70.45
2019-02-07T16:53:53.542Z,69.65
2019-02-07T16:56:19.866Z,75.22
2019-02-07T16:58:46.169Z,67.42
2019-02-07T17:01:12.577Z,70.28
2019-02-07T17:03:38.964Z,83.25
2019-02-07T17:06:05.439Z,68.83
2019-02-07T17:08:31.821Z,66.67
2019-02-07T17:10:58.584Z,77.92
2019-02-07T17:13:24.867Z,81.85
2019-02-07T17:15:51.235Z,66.20
2019-02-07T17:18:17.541Z,73.15
2019-02-07T17:20:44.010Z,75.70
2019-02-07T17:23:10.381Z,73.57
2019-02-07T17:25:36.869Z,74.65
2019-02-07T17:28:03.759Z,71.35
2019-02-07T17:30:30.705Z,62.83
2019-02-07T17:32:57.187Z,79.55
2019-02-07T17:35:23.743Z,90.42
2019-02-07T17:37:50.732Z,66.30
2019-02-07T17:40:19.215Z,67.50
2019-02-07T17:42:45.774Z,72.10
2019-02-07T17:45:15.465Z,67.10
2019-02-07T17:47:42.020Z,72.97
2019-02-07T17:50:33.109Z,71.97
2019-02-07T17:53:04.673Z,68.72
2019-02-07T17:55:31.183Z,75.90
2019-02-07T17:57:57.531Z,67.42
2019-02-07T18:00:35.289Z,70.45
2019-02-07T18:03:01.553Z,67.32
2019-02-07T18:05:28.018Z,71.65
2019-02-07T18:07:54.507Z,66.72
2019-02-07T18:10:20.971Z,65.85
2019-02-07T18:12:47.451Z,61.30
2019-02-07T18:15:14.209Z,63.28
2019-02-07T18:17:40.993Z,62.50
2019-02-07T18:20:15.904Z,63.40
2019-02-07T18:22:42.149Z,63.33
2019-02-07T18:25:08.608Z,66.85
2019-02-07T18:27:35.042Z,68.92
2019-02-07T18:30:01.818Z,65.60
2019-02-07T18:32:28.267Z,70.22
2019-02-07T18:34:55.128Z,61.50
2019-02-07T18:37:21.509Z,60.25
2019-02-07T18:39:47.760Z,62.85
2019-02-07T18:42:14.021Z,56.98
2019-02-07T18:44:40.407Z,65.17
2019-02-07T18:47:06.783Z,58.98
2019-02-07T18:49:33.264Z,55.50
2019-02-07T18:51:59.615Z,61.50
2019-02-07T18:54:25.884Z,55.03
2019-02-07T18:56:52.468Z,58.13
2019-02-07T18:59:18.832Z,56.40
2019-02-07T19:01:45.117Z,58.85
2019-02-07T19:04:11.401Z,56.35
2019-02-07T19:06:37.769Z,63.25
2019-02-07T19:09:06.257Z,56.10
2019-02-07T19:11:32.511Z,55.78
2019-02-07T19:13:58.797Z,63.28
2019-02-07T19:16:25.367Z,53.33
2019-02-07T19:18:51.618Z,57.73
2019-02-07T19:21:17.998Z,54.30
2019-02-07T19:23:44.261Z,58.38
2019-02-07T19:26:13.205Z,55.28
2019-02-07T19:28:38.601Z,58.92
2019-02-07T19:31:04.952Z,68.50
2019-02-07T19:33:31.455Z,56.60
2019-02-07T19:35:58.136Z,50.28
2019-02-07T19:38:24.391Z,62.17
2019-02-07T19:40:50.696Z,54.60
2019-02-07T19:43:17.071Z,56.92
2019-02-07T19:45:43.480Z,57.48
2019-02-07T19:48:09.855Z,61.48
2019-02-07T19:50:36.125Z,62.95
2019-02-07T19:53:03.036Z,69.60
2019-02-07T19:55:30.999Z,68.60
2019-02-07T19:57:57.471Z,67.90
2019-02-07T20:00:28.851Z,62.50
2019-02-07T20:02:55.746Z,67.58
2019-02-07T20:05:22.519Z,70.37
2019-02-07T20:07:48.876Z,69.50
2019-02-07T20:10:20.500Z,72.27
2019-02-07T20:12:47.216Z,66.87
2019-02-07T20:15:17.431Z,71.05
2019-02-07T20:17:43.825Z,72.62
2019-02-07T20:20:12.991Z,72.58
2019-02-07T20:22:39.670Z,70.87
2019-02-07T20:25:09.053Z,66.45
2019-02-07T20:27:35.420Z,69.42
2019-02-07T20:30:03.776Z,76.25
2019-02-07T20:32:30.161Z,72.15
2019-02-07T20:34:56.824Z,62.75
2019-02-07T20:37:23.112Z,78.35
2019-02-07T20:39:49.370Z,68.30
2019-02-07T20:42:15.816Z,74.82
2019-02-07T20:44:42.205Z,78.62
2019-02-07T20:47:08.485Z,72.92
2019-02-07T20:49:34.748Z,74.95
2019-02-07T20:52:01.249Z,76.30
2019-02-07T20:54:27.508Z,69.50
2019-02-07T20:56:54.069Z,75.25
2019-02-07T20:59:20.355Z,65.15
2019-02-07T21:01:46.659Z,72.65
2019-02-07T21:04:12.906Z,71.02
2019-02-07T21:06:39.196Z,71.42
2019-02-07T21:09:06.254Z,70.15
2019-02-07T21:11:32.504Z,65.92
2019-02-07T21:13:58.779Z,70.47
2019-02-07T21:16:25.045Z,64.03
2019-02-07T21:18:51.622Z,75.15
2019-02-07T21:21:17.872Z,72.15
2019-02-07T21:23:44.157Z,72.55
2019-02-07T21:26:10.415Z,63.80
2019-02-07T21:28:36.710Z,69.32
2019-02-07T21:31:03.189Z,65.67
2019-02-07T21:33:29.435Z,71.20
2019-02-07T21:35:55.830Z,67.62
2019-02-07T21:38:22.180Z,71.35
2019-02-07T21:40:48.843Z,69.97
2019-02-07T21:43:15.317Z,71.47
2019-02-07T21:45:41.667Z,65.97
2019-02-07T21:48:08.187Z,76.60
2019-02-07T21:50:34.443Z,66.85
2019-02-07T21:53:00.788Z,76.67
2019-02-07T21:55:29.168Z,73.62
2019-02-07T21:57:55.617Z,72.03
2019-02-07T22:00:31.418Z,80.60
2019-02-07T22:02:57.787Z,75.37
2019-02-07T22:05:24.861Z,69.53
2019-02-07T22:07:51.120Z,82.60
2019-02-07T22:10:17.616Z,66.90
2019-02-07T22:12:44.475Z,63.05
2019-02-07T22:15:14.138Z,71.47
2019-02-07T22:17:40.513Z,69.17
2019-02-07T22:20:15.943Z,66.75
2019-02-07T22:22:48.968Z,65.28
2019-02-07T22:25:12.179Z,72.50
2019-02-07T22:27:38.689Z,64.70
2019-02-07T22:30:11.877Z,63.13
2019-02-07T22:32:38.127Z,59.33
2019-02-07T22:35:06.811Z,72.90
2019-02-07T22:37:33.059Z,64.77
2019-02-07T22:39:59.512Z,68.00
2019-02-07T22:42:25.796Z,71.25
2019-02-07T22:44:52.064Z,62.38
2019-02-07T22:47:18.370Z,72.35
2019-02-07T22:49:44.649Z,70.57
2019-02-07T22:52:11.129Z,60.98
2019-02-07T22:54:37.705Z,64.80
2019-02-07T22:57:04.176Z,60.35
2019-02-07T22:59:30.463Z,71.47
2019-02-07T23:01:57.021Z,63.70
2019-02-07T23:04:23.499Z,69.15
2019-02-07T23:06:49.853Z,62.98
2019-02-07T23:09:16.801Z,64.03
2019-02-07T23:11:43.184Z,62.23
2019-02-07T23:14:09.832Z,64.50
2019-02-07T23:16:36.210Z,65.45
2019-02-07T23:19:04.754Z,57.38
2019-02-07T23:21:31.116Z,65.90
2019-02-07T23:23:57.396Z,65.65
2019-02-07T23:26:23.754Z,65.55
2019-02-07T23:28:50.105Z,66.22
2019-02-07T23:31:16.384Z,63.68
2019-02-07T23:33:42.956Z,61.75
2019-02-07T23:36:09.638Z,80.30
2019-02-07T23:38:35.879Z,62.38
2019-02-07T23:41:02.276Z,60.35
2019-02-07T23:43:28.751Z,63.80
2019-02-07T23:45:55.008Z,70.75
2019-02-07T23:48:21.394Z,68.35
2019-02-07T23:50:47.739Z,66.87
2019-02-07T23:53:14.795Z,64.25
2019-02-07T23:55:41.676Z,74.92
2019-02-07T23:58:08.127Z,62.93
